sensor_id;sensor_type;location;lat;lon;timestamp;pressure;altitude;pressure_sealevel;temperature;humidity
55675;BME280;41562;44.330;23.802;2023-04-04T00:00:15;99311.13;;;7.22;100.00
55675;BME280;41562;44.330;23.802;2023-04-04T00:02:42;99296.31;;;6.96;100.00
55675;BME280;41562;44.330;23.802;2023-04-04T00:05:09;99315.75;;;6.86;100.00
55675;BME280;41562;44.330;23.802;2023-04-04T00:07:37;99297.41;;;6.95;100.00
55675;BME280;41562;44.330;23.802;2023-04-04T00:10:04;99313.63;;;6.88;100.00
55675;BME280;41562;44.330;23.802;2023-04-04T00:12:31;99301.91;;;6.84;100.00
55675;BME280;41562;44.330;23.802;2023-04-04T00:14:59;99294.22;;;6.88;100.00
55675;BME280;41562;44.330;23.802;2023-04-04T00:17:26;99294.72;;;7.00;100.00
55675;BME280;41562;44.330;23.802;2023-04-04T00:19:53;99294.75;;;6.95;100.00
55675;BME280;41562;44.330;23.802;2023-04-04T00:22:20;99297.72;;;6.63;100.00
55675;BME280;41562;44.330;23.802;2023-04-04T00:24:47;99292.13;;;6.64;100.00
55675;BME280;41562;44.330;23.802;2023-04-04T00:27:14;99296.91;;;6.67;100.00
55675;BME280;41562;44.330;23.802;2023-04-04T00:29:41;99283.66;;;6.57;100.00
55675;BME280;41562;44.330;23.802;2023-04-04T00:32:09;99302.78;;;6.49;100.00
55675;BME280;41562;44.330;23.802;2023-04-04T00:34:36;99300.66;;;6.61;100.00
55675;BME280;41562;44.330;23.802;2023-04-04T00:37:04;99305.16;;;6.61;100.00
55675;BME280;41562;44.330;23.802;2023-04-04T00:39:32;99329.31;;;6.59;100.00
55675;BME280;41562;44.330;23.802;2023-04-04T00:41:59;99301.69;;;6.45;100.00
55675;BME280;41562;44.330;23.802;2023-04-04T00:44:27;99295.34;;;6.41;100.00
55675;BME280;41562;44.330;23.802;2023-04-04T00:46:54;99306.50;;;6.38;100.00
55675;BME280;41562;44.330;23.802;2023-04-04T00:49:21;99305.97;;;6.51;100.00
55675;BME280;41562;44.330;23.802;2023-04-04T00:51:48;99293.75;;;6.35;100.00
55675;BME280;41562;44.330;23.802;2023-04-04T00:54:16;99296.69;;;6.38;100.00
55675;BME280;41562;44.330;23.802;2023-04-04T00:56:43;99311.00;;;6.32;100.00
55675;BME280;41562;44.330;23.802;2023-04-04T00:59:10;99315.25;;;6.49;100.00
55675;BME280;41562;44.330;23.802;2023-04-04T01:01:38;99302.53;;;6.25;100.00
55675;BME280;41562;44.330;23.802;2023-04-04T01:04:05;99309.16;;;6.18;100.00
55675;BME280;41562;44.330;23.802;2023-04-04T01:06:33;99322.44;;;6.23;100.00
55675;BME280;41562;44.330;23.802;2023-04-04T01:09:01;99324.03;;;6.24;100.00
55675;BME280;41562;44.330;23.802;2023-04-04T01:11:29;99316.31;;;6.32;100.00
55675;BME280;41562;44.330;23.802;2023-04-04T01:13:58;99316.06;;;6.24;100.00
55675;BME280;41562;44.330;23.802;2023-04-04T01:16:25;99310.72;;;6.14;100.00
55675;BME280;41562;44.330;23.802;2023-04-04T01:18:54;99306.50;;;6.18;100.00
55675;BME280;41562;44.330;23.802;2023-04-04T01:21:22;99314.72;;;6.21;100.00
55675;BME280;41562;44.330;23.802;2023-04-04T01:24:01;99325.09;;;6.13;100.00
55675;BME280;41562;44.330;23.802;2023-04-04T01:26:29;99307.03;;;6.15;100.00
55675;BME280;41562;44.330;23.802;2023-04-04T01:28:57;99308.88;;;6.14;100.00
55675;BME280;41562;44.330;23.802;2023-04-04T01:31:28;99284.75;;;6.00;100.00
55675;BME280;41562;44.330;23.802;2023-04-04T01:34:12;99298.53;;;6.02;100.00
55675;BME280;41562;44.330;23.802;2023-04-04T01:36:53;99301.47;;;6.06;100.00
55675;BME280;41562;44.330;23.802;2023-04-04T01:39:52;99299.59;;;6.07;100.00
55675;BME280;41562;44.330;23.802;2023-04-04T01:42:17;99308.06;;;5.98;100.00
55675;BME280;41562;44.330;23.802;2023-04-04T01:44:45;99327.19;;;6.05;100.00
55675;BME280;41562;44.330;23.802;2023-04-04T01:47:13;99306.75;;;6.21;100.00
55675;BME280;41562;44.330;23.802;2023-04-04T01:49:40;99313.38;;;6.39;100.00
55675;BME280;41562;44.330;23.802;2023-04-04T01:52:09;99313.66;;;6.12;100.00
55675;BME280;41562;44.330;23.802;2023-04-04T01:54:36;99318.69;;;6.09;100.00
55675;BME280;41562;44.330;23.802;2023-04-04T01:57:03;99308.63;;;6.05;100.00
55675;BME280;41562;44.330;23.802;2023-04-04T01:59:30;99309.66;;;6.20;100.00
55675;BME280;41562;44.330;23.802;2023-04-04T02:01:58;99301.16;;;6.07;100.00
55675;BME280;41562;44.330;23.802;2023-04-04T02:04:25;99302.78;;;6.03;100.00
55675;BME280;41562;44.330;23.802;2023-04-04T02:06:52;99305.44;;;6.03;100.00
55675;BME280;41562;44.330;23.802;2023-04-04T02:09:20;99293.50;;;6.21;100.00
55675;BME280;41562;44.330;23.802;2023-04-04T02:11:47;99290.56;;;5.97;100.00
55675;BME280;41562;44.330;23.802;2023-04-04T02:14:14;99303.81;;;5.92;100.00
55675;BME280;41562;44.330;23.802;2023-04-04T02:16:47;99287.91;;;6.02;100.00
55675;BME280;41562;44.330;23.802;2023-04-04T02:19:15;99285.25;;;6.02;100.00
55675;BME280;41562;44.330;23.802;2023-04-04T02:21:42;99270.38;;;5.96;100.00
55675;BME280;41562;44.330;23.802;2023-04-04T02:24:10;99299.31;;;6.03;100.00
55675;BME280;41562;44.330;23.802;2023-04-04T02:26:37;99260.28;;;5.88;100.00
55675;BME280;41562;44.330;23.802;2023-04-04T02:29:04;99250.25;;;6.00;100.00
55675;BME280;41562;44.330;23.802;2023-04-04T02:31:33;99265.56;;;5.78;100.00
55675;BME280;41562;44.330;23.802;2023-04-04T02:34:00;99250.47;;;5.89;100.00
55675;BME280;41562;44.330;23.802;2023-04-04T02:36:27;99269.03;;;5.79;100.00
55675;BME280;41562;44.330;23.802;2023-04-04T02:38:55;99244.66;;;6.07;100.00
55675;BME280;41562;44.330;23.802;2023-04-04T02:41:22;99230.06;;;5.89;100.00
55675;BME280;41562;44.330;23.802;2023-04-04T02:43:49;99247.00;;;5.73;100.00
55675;BME280;41562;44.330;23.802;2023-04-04T02:46:16;99241.94;;;5.82;100.00
55675;BME280;41562;44.330;23.802;2023-04-04T02:48:48;99234.28;;;5.80;100.00
55675;BME280;41562;44.330;23.802;2023-04-04T02:51:15;99235.59;;;5.73;100.00
55675;BME280;41562;44.330;23.802;2023-04-04T02:53:42;99225.78;;;5.73;100.00
55675;BME280;41562;44.330;23.802;2023-04-04T02:56:09;99243.81;;;5.61;100.00
55675;BME280;41562;44.330;23.802;2023-04-04T02:58:36;99228.69;;;5.66;100.00
55675;BME280;41562;44.330;23.802;2023-04-04T03:01:04;99238.25;;;5.68;100.00
55675;BME280;41562;44.330;23.802;2023-04-04T03:03:31;99213.59;;;5.67;100.00
55675;BME280;41562;44.330;23.802;2023-04-04T03:05:58;99204.78;;;5.56;100.00
55675;BME280;41562;44.330;23.802;2023-04-04T03:08:26;99214.38;;;5.78;100.00
55675;BME280;41562;44.330;23.802;2023-04-04T03:10:53;99210.66;;;5.63;100.00
55675;BME280;41562;44.330;23.802;2023-04-04T03:13:21;99218.09;;;5.61;100.00
55675;BME280;41562;44.330;23.802;2023-04-04T03:15:48;99217.81;;;5.63;100.00
55675;BME280;41562;44.330;23.802;2023-04-04T03:18:15;99206.69;;;5.76;100.00
55675;BME280;41562;44.330;23.802;2023-04-04T03:20:42;99201.66;;;5.75;100.00
55675;BME280;41562;44.330;23.802;2023-04-04T03:23:09;99214.88;;;5.64;100.00
55675;BME280;41562;44.330;23.802;2023-04-04T03:25:37;99208.78;;;5.59;100.00
55675;BME280;41562;44.330;23.802;2023-04-04T03:28:09;99191.31;;;5.83;100.00
55675;BME280;41562;44.330;23.802;2023-04-04T03:30:36;99193.16;;;5.73;100.00
55675;BME280;41562;44.330;23.802;2023-04-04T03:33:07;99209.84;;;5.53;100.00
55675;BME280;41562;44.330;23.802;2023-04-04T03:35:38;99201.84;;;6.59;100.00
55675;BME280;41562;44.330;23.802;2023-04-04T03:38:06;99204.16;;;6.86;100.00
55675;BME280;41562;44.330;23.802;2023-04-04T03:40:34;99183.69;;;6.86;100.00
55675;BME280;41562;44.330;23.802;2023-04-04T03:43:05;99195.88;;;8.15;100.00
55675;BME280;41562;44.330;23.802;2023-04-04T03:45:34;99206.91;;;8.32;100.00
55675;BME280;41562;44.330;23.802;2023-04-04T03:48:02;99183.81;;;8.75;100.00
55675;BME280;41562;44.330;23.802;2023-04-04T03:50:30;99171.69;;;8.64;100.00
55675;BME280;41562;44.330;23.802;2023-04-04T03:52:58;99175.81;;;6.61;100.00
55675;BME280;41562;44.330;23.802;2023-04-04T03:55:27;99161.09;;;5.89;100.00
55675;BME280;41562;44.330;23.802;2023-04-04T03:57:56;99175.94;;;5.80;100.00
55675;BME280;41562;44.330;23.802;2023-04-04T04:00:24;99179.09;;;5.67;100.00
55675;BME280;41562;44.330;23.802;2023-04-04T04:02:52;99160.28;;;5.79;100.00
55675;BME280;41562;44.330;23.802;2023-04-04T04:05:20;99167.41;;;5.63;100.00
55675;BME280;41562;44.330;23.802;2023-04-04T04:07:47;99165.81;;;5.52;100.00
55675;BME280;41562;44.330;23.802;2023-04-04T04:10:14;99168.75;;;5.50;100.00
55675;BME280;41562;44.330;23.802;2023-04-04T04:12:41;99161.34;;;5.68;100.00
55675;BME280;41562;44.330;23.802;2023-04-04T04:15:09;99175.13;;;5.54;100.00
55675;BME280;41562;44.330;23.802;2023-04-04T04:17:39;99172.22;;;5.56;100.00
55675;BME280;41562;44.330;23.802;2023-04-04T04:20:07;99175.63;;;5.51;100.00
55675;BME280;41562;44.330;23.802;2023-04-04T04:22:35;99170.88;;;5.53;100.00
55675;BME280;41562;44.330;23.802;2023-04-04T04:25:02;99168.75;;;5.40;100.00
55675;BME280;41562;44.330;23.802;2023-04-04T04:27:30;99170.31;;;5.31;100.00
55675;BME280;41562;44.330;23.802;2023-04-04T04:29:57;99179.88;;;5.37;100.00
55675;BME280;41562;44.330;23.802;2023-04-04T04:32:24;99189.38;;;5.28;100.00
55675;BME280;41562;44.330;23.802;2023-04-04T04:34:52;99179.03;;;5.26;100.00
55675;BME280;41562;44.330;23.802;2023-04-04T04:37:19;99183.28;;;5.22;100.00
55675;BME280;41562;44.330;23.802;2023-04-04T04:39:46;99182.75;;;5.25;100.00
55675;BME280;41562;44.330;23.802;2023-04-04T04:42:14;99178.50;;;5.19;100.00
55675;BME280;41562;44.330;23.802;2023-04-04T04:44:42;99167.38;;;5.17;100.00
55675;BME280;41562;44.330;23.802;2023-04-04T04:47:09;99160.53;;;5.37;100.00
55675;BME280;41562;44.330;23.802;2023-04-04T04:49:37;99199.75;;;5.30;100.00
55675;BME280;41562;44.330;23.802;2023-04-04T04:52:05;99164.75;;;5.22;100.00
55675;BME280;41562;44.330;23.802;2023-04-04T04:54:32;99166.88;;;5.31;100.00
55675;BME280;41562;44.330;23.802;2023-04-04T04:56:59;99179.88;;;5.42;100.00
55675;BME280;41562;44.330;23.802;2023-04-04T04:59:26;99165.28;;;5.35;100.00
55675;BME280;41562;44.330;23.802;2023-04-04T05:01:54;99162.88;;;5.18;100.00
55675;BME280;41562;44.330;23.802;2023-04-04T05:04:22;99178.28;;;5.36;100.00
55675;BME280;41562;44.330;23.802;2023-04-04T05:06:50;99158.94;;;5.41;100.00
55675;BME280;41562;44.330;23.802;2023-04-04T05:09:18;99174.28;;;5.44;100.00
55675;BME280;41562;44.330;23.802;2023-04-04T05:11:54;99160.53;;;5.37;100.00
55675;BME280;41562;44.330;23.802;2023-04-04T05:14:21;99183.34;;;5.43;100.00
55675;BME280;41562;44.330;23.802;2023-04-04T05:16:48;99189.19;;;5.50;100.00
55675;BME280;41562;44.330;23.802;2023-04-04T05:19:16;99177.22;;;5.37;100.00
55675;BME280;41562;44.330;23.802;2023-04-04T05:21:43;99201.84;;;5.28;100.00
55675;BME280;41562;44.330;23.802;2023-04-04T05:24:10;99204.78;;;5.46;100.00
55675;BME280;41562;44.330;23.802;2023-04-04T05:26:38;99193.94;;;5.43;100.00
55675;BME280;41562;44.330;23.802;2023-04-04T05:29:05;99185.44;;;5.36;100.00
55675;BME280;41562;44.330;23.802;2023-04-04T05:31:34;99200.28;;;5.37;100.00
55675;BME280;41562;44.330;23.802;2023-04-04T05:34:02;99185.19;;;5.47;100.00
55675;BME280;41562;44.330;23.802;2023-04-04T05:36:29;99208.25;;;5.47;100.00
55675;BME280;41562;44.330;23.802;2023-04-04T05:38:56;99187.78;;;5.27;100.00
55675;BME280;41562;44.330;23.802;2023-04-04T05:41:24;99209.25;;;5.25;100.00
55675;BME280;41562;44.330;23.802;2023-04-04T05:43:51;99192.84;;;5.34;100.00
55675;BME280;41562;44.330;23.802;2023-04-04T05:46:18;99201.59;;;5.44;100.00
55675;BME280;41562;44.330;23.802;2023-04-04T05:48:45;99221.75;;;5.30;100.00
55675;BME280;41562;44.330;23.802;2023-04-04T05:51:13;99213.50;;;5.32;100.00
55675;BME280;41562;44.330;23.802;2023-04-04T05:53:40;99208.75;;;5.39;100.00
55675;BME280;41562;44.330;23.802;2023-04-04T05:56:07;99192.34;;;5.37;100.00
55675;BME280;41562;44.330;23.802;2023-04-04T05:58:35;99233.13;;;5.31;100.00
55675;BME280;41562;44.330;23.802;2023-04-04T06:01:06;99195.19;;;5.20;100.00
55675;BME280;41562;44.330;23.802;2023-04-04T06:03:34;99206.09;;;5.23;100.00
55675;BME280;41562;44.330;23.802;2023-04-04T06:06:02;99203.16;;;5.25;100.00
55675;BME280;41562;44.330;23.802;2023-04-04T06:08:30;99214.56;;;5.25;100.00
55675;BME280;41562;44.330;23.802;2023-04-04T06:11:06;99207.38;;;5.21;100.00
55675;BME280;41562;44.330;23.802;2023-04-04T06:13:33;99210.34;;;5.30;100.00
55675;BME280;41562;44.330;23.802;2023-04-04T06:16:01;99204.28;;;5.49;100.00
55675;BME280;41562;44.330;23.802;2023-04-04T06:18:29;99214.84;;;5.24;100.00
55675;BME280;41562;44.330;23.802;2023-04-04T06:20:56;99215.13;;;5.43;100.00
55675;BME280;41562;44.330;23.802;2023-04-04T06:23:23;99228.59;;;5.31;100.00
55675;BME280;41562;44.330;23.802;2023-04-04T06:25:52;99230.50;;;5.46;100.00
55675;BME280;41562;44.330;23.802;2023-04-04T06:28:19;99218.84;;;5.42;100.00
55675;BME280;41562;44.330;23.802;2023-04-04T06:30:47;99223.84;;;5.33;100.00
55675;BME280;41562;44.330;23.802;2023-04-04T06:33:14;99226.78;;;5.37;100.00
55675;BME280;41562;44.330;23.802;2023-04-04T06:35:45;99225.22;;;5.46;100.00
55675;BME280;41562;44.330;23.802;2023-04-04T06:38:12;99226.25;;;5.45;100.00
55675;BME280;41562;44.330;23.802;2023-04-04T06:40:39;99215.41;;;5.41;100.00
55675;BME280;41562;44.330;23.802;2023-04-04T06:43:07;99238.72;;;5.44;100.00
55675;BME280;41562;44.330;23.802;2023-04-04T06:45:34;99234.25;;;5.55;100.00
55675;BME280;41562;44.330;23.802;2023-04-04T06:48:02;99224.69;;;5.54;100.00
55675;BME280;41562;44.330;23.802;2023-04-04T06:50:30;99230.78;;;5.49;100.00
55675;BME280;41562;44.330;23.802;2023-04-04T06:52:59;99234.50;;;5.53;100.00
55675;BME280;41562;44.330;23.802;2023-04-04T06:55:26;99240.34;;;5.71;100.00
55675;BME280;41562;44.330;23.802;2023-04-04T06:57:54;99232.66;;;5.64;100.00
55675;BME280;41562;44.330;23.802;2023-04-04T07:00:22;99256.25;;;5.55;100.00
55675;BME280;41562;44.330;23.802;2023-04-04T07:02:56;99235.84;;;5.61;100.00
55675;BME280;41562;44.330;23.802;2023-04-04T07:05:23;99253.91;;;5.74;100.00
55675;BME280;41562;44.330;23.802;2023-04-04T07:07:51;99252.03;;;5.64;100.00
55675;BME280;41562;44.330;23.802;2023-04-04T07:10:22;99262.91;;;5.68;100.00
55675;BME280;41562;44.330;23.802;2023-04-04T07:12:49;99248.56;;;5.64;100.00
55675;BME280;41562;44.330;23.802;2023-04-04T07:15:16;99251.28;;;5.89;100.00
55675;BME280;41562;44.330;23.802;2023-04-04T07:17:44;99258.66;;;5.82;100.00
55675;BME280;41562;44.330;23.802;2023-04-04T07:20:14;99259.25;;;5.94;100.00
55675;BME280;41562;44.330;23.802;2023-04-04T07:22:41;99253.09;;;5.74;100.00
55675;BME280;41562;44.330;23.802;2023-04-04T07:25:11;99282.06;;;5.90;100.00
55675;BME280;41562;44.330;23.802;2023-04-04T07:27:38;99269.81;;;5.84;100.00
55675;BME280;41562;44.330;23.802;2023-04-04T07:30:06;99272.22;;;5.81;100.00
55675;BME280;41562;44.330;23.802;2023-04-04T07:32:33;99271.94;;;5.77;100.00
55675;BME280;41562;44.330;23.802;2023-04-04T07:35:01;99292.63;;;5.85;100.00
55675;BME280;41562;44.330;23.802;2023-04-04T07:37:28;99273.81;;;5.87;100.00
55675;BME280;41562;44.330;23.802;2023-04-04T07:39:55;99305.09;;;5.75;100.00
55675;BME280;41562;44.330;23.802;2023-04-04T07:42:22;99286.25;;;5.76;100.00
55675;BME280;41562;44.330;23.802;2023-04-04T07:44:53;99303.25;;;5.75;100.00
55675;BME280;41562;44.330;23.802;2023-04-04T07:47:20;99284.13;;;5.73;100.00
55675;BME280;41562;44.330;23.802;2023-04-04T07:49:48;99293.94;;;5.73;100.00
55675;BME280;41562;44.330;23.802;2023-04-04T07:52:15;99295.28;;;5.80;100.00
55675;BME280;41562;44.330;23.802;2023-04-04T07:54:42;99298.53;;;5.92;100.00
55675;BME280;41562;44.330;23.802;2023-04-04T07:57:12;99301.16;;;5.87;100.00
55675;BME280;41562;44.330;23.802;2023-04-04T07:59:42;99305.94;;;5.90;100.00
55675;BME280;41562;44.330;23.802;2023-04-04T08:02:12;99324.97;;;5.82;100.00
55675;BME280;41562;44.330;23.802;2023-04-04T08:04:40;99308.03;;;5.88;100.00
55675;BME280;41562;44.330;23.802;2023-04-04T08:07:07;99315.97;;;5.83;100.00
55675;BME280;41562;44.330;23.802;2023-04-04T08:09:34;99310.13;;;5.76;100.00
55675;BME280;41562;44.330;23.802;2023-04-04T08:12:02;99324.50;;;5.90;100.00
55675;BME280;41562;44.330;23.802;2023-04-04T08:14:29;99324.53;;;6.00;100.00
55675;BME280;41562;44.330;23.802;2023-04-04T08:16:59;99352.13;;;5.99;100.00
55675;BME280;41562;44.330;23.802;2023-04-04T08:19:27;99314.44;;;6.02;100.00
55675;BME280;41562;44.330;23.802;2023-04-04T08:21:55;99320.81;;;5.96;100.00
55675;BME280;41562;44.330;23.802;2023-04-04T08:24:22;99331.97;;;5.93;100.00
55675;BME280;41562;44.330;23.802;2023-04-04T08:26:50;99311.28;;;6.16;100.00
55675;BME280;41562;44.330;23.802;2023-04-04T08:29:30;99332.22;;;5.97;100.00
55675;BME280;41562;44.330;23.802;2023-04-04T08:31:58;99352.63;;;5.91;100.00
55675;BME280;41562;44.330;23.802;2023-04-04T08:34:25;99338.56;;;5.91;100.00
55675;BME280;41562;44.330;23.802;2023-04-04T08:36:53;99339.91;;;6.09;100.00
55675;BME280;41562;44.330;23.802;2023-04-04T08:39:20;99355.28;;;6.01;100.00
55675;BME280;41562;44.330;23.802;2023-04-04T08:41:54;99363.25;;;5.96;100.00
55675;BME280;41562;44.330;23.802;2023-04-04T08:44:23;99359.56;;;6.02;100.00
55675;BME280;41562;44.330;23.802;2023-04-04T08:46:53;99364.34;;;6.05;100.00
55675;BME280;41562;44.330;23.802;2023-04-04T08:49:22;99377.31;;;6.07;100.00
55675;BME280;41562;44.330;23.802;2023-04-04T08:51:51;99387.69;;;6.09;100.00
55675;BME280;41562;44.330;23.802;2023-04-04T08:54:21;99410.75;;;5.93;100.00
55675;BME280;41562;44.330;23.802;2023-04-04T08:56:48;99408.41;;;6.17;100.00
55675;BME280;41562;44.330;23.802;2023-04-04T08:59:22;99430.69;;;6.16;100.00
55675;BME280;41562;44.330;23.802;2023-04-04T09:01:58;99446.31;;;6.07;100.00
55675;BME280;41562;44.330;23.802;2023-04-04T09:04:28;99438.16;;;6.34;100.00
55675;BME280;41562;44.330;23.802;2023-04-04T09:06:55;99453.00;;;6.20;100.00
55675;BME280;41562;44.330;23.802;2023-04-04T09:09:23;99478.47;;;6.11;100.00
55675;BME280;41562;44.330;23.802;2023-04-04T09:11:51;99487.50;;;6.15;100.00
55675;BME280;41562;44.330;23.802;2023-04-04T09:14:19;99464.66;;;6.14;100.00
55675;BME280;41562;44.330;23.802;2023-04-04T09:16:47;99491.81;;;6.36;100.00
55675;BME280;41562;44.330;23.802;2023-04-04T09:19:15;99505.91;;;6.36;100.00
55675;BME280;41562;44.330;23.802;2023-04-04T09:21:46;99506.41;;;6.33;100.00
55675;BME280;41562;44.330;23.802;2023-04-04T09:24:13;99497.63;;;6.33;100.00
55675;BME280;41562;44.330;23.802;2023-04-04T09:26:48;99504.63;;;6.59;100.00
55675;BME280;41562;44.330;23.802;2023-04-04T09:29:21;99517.34;;;6.52;100.00
55675;BME280;41562;44.330;23.802;2023-04-04T09:31:49;99509.38;;;6.52;100.00
55675;BME280;41562;44.330;23.802;2023-04-04T09:34:18;99508.31;;;6.43;100.00
55675;BME280;41562;44.330;23.802;2023-04-04T09:36:49;99512.56;;;6.49;100.00
55675;BME280;41562;44.330;23.802;2023-04-04T09:39:19;99506.09;;;6.20;100.00
55675;BME280;41562;44.330;23.802;2023-04-04T09:41:48;99522.13;;;6.50;100.00
55675;BME280;41562;44.330;23.802;2023-04-04T09:44:15;99528.31;;;7.52;100.00
55675;BME280;41562;44.330;23.802;2023-04-04T09:46:43;99536.56;;;7.00;100.00
55675;BME280;41562;44.330;23.802;2023-04-04T09:49:17;99534.88;;;6.48;100.00
55675;BME280;41562;44.330;23.802;2023-04-04T09:51:48;99540.16;;;6.38;100.00
55675;BME280;41562;44.330;23.802;2023-04-04T09:54:22;99542.22;;;6.26;100.00
55675;BME280;41562;44.330;23.802;2023-04-04T09:56:56;99554.13;;;6.18;100.00
55675;BME280;41562;44.330;23.802;2023-04-04T09:59:24;99548.56;;;6.20;100.00
55675;BME280;41562;44.330;23.802;2023-04-04T10:01:53;99551.16;;;6.04;100.00
55675;BME280;41562;44.330;23.802;2023-04-04T10:04:22;99553.84;;;6.15;100.00
55675;BME280;41562;44.330;23.802;2023-04-04T10:06:49;99551.19;;;6.15;100.00
55675;BME280;41562;44.330;23.802;2023-04-04T10:09:16;99551.13;;;5.99;100.00
55675;BME280;41562;44.330;23.802;2023-04-04T10:11:43;99559.72;;;6.22;100.00
55675;BME280;41562;44.330;23.802;2023-04-04T10:14:11;99564.41;;;6.04;100.00
55675;BME280;41562;44.330;23.802;2023-04-04T10:16:43;99558.09;;;6.16;100.00
55675;BME280;41562;44.330;23.802;2023-04-04T10:19:11;99569.19;;;6.02;100.00
55675;BME280;41562;44.330;23.802;2023-04-04T10:21:39;99565.44;;;5.93;100.00
55675;BME280;41562;44.330;23.802;2023-04-04T10:24:06;99562.97;;;5.87;100.00
55675;BME280;41562;44.330;23.802;2023-04-04T10:26:34;99571.59;;;6.09;100.00
55675;BME280;41562;44.330;23.802;2023-04-04T10:29:01;99574.09;;;6.26;100.00
55675;BME280;41562;44.330;23.802;2023-04-04T10:31:30;99583.56;;;6.12;100.00
55675;BME280;41562;44.330;23.802;2023-04-04T10:34:21;99579.06;;;6.12;100.00
55675;BME280;41562;44.330;23.802;2023-04-04T10:37:14;99586.63;;;6.40;100.00
55675;BME280;41562;44.330;23.802;2023-04-04T10:39:54;99581.75;;;6.17;100.00
55675;BME280;41562;44.330;23.802;2023-04-04T10:42:25;99594.28;;;6.32;100.00
55675;BME280;41562;44.330;23.802;2023-04-04T10:44:59;99587.16;;;6.37;100.00
55675;BME280;41562;44.330;23.802;2023-04-04T10:47:44;99588.97;;;6.32;100.00
55675;BME280;41562;44.330;23.802;2023-04-04T10:50:12;99588.97;;;6.32;100.00
55675;BME280;41562;44.330;23.802;2023-04-04T10:52:41;99588.34;;;6.15;100.00
55675;BME280;41562;44.330;23.802;2023-04-04T10:55:13;99587.41;;;6.41;100.00
55675;BME280;41562;44.330;23.802;2023-04-04T10:57:48;99589.59;;;6.54;100.00
55675;BME280;41562;44.330;23.802;2023-04-04T11:00:18;99592.72;;;6.41;100.00
55675;BME280;41562;44.330;23.802;2023-04-04T11:02:56;99591.31;;;6.23;100.00
55675;BME280;41562;44.330;23.802;2023-04-04T11:08:04;99596.41;;;6.30;100.00
55675;BME280;41562;44.330;23.802;2023-04-04T11:10:36;99596.81;;;6.07;100.00
55675;BME280;41562;44.330;23.802;2023-04-04T11:13:09;99597.06;;;6.05;100.00
55675;BME280;41562;44.330;23.802;2023-04-04T11:15:57;99609.28;;;6.06;100.00
55675;BME280;41562;44.330;23.802;2023-04-04T11:21:01;99605.75;;;5.95;100.00
55675;BME280;41562;44.330;23.802;2023-04-04T11:24:23;99609.00;;;6.07;100.00
55675;BME280;41562;44.330;23.802;2023-04-04T11:29:00;99607.47;;;6.17;100.00
55675;BME280;41562;44.330;23.802;2023-04-04T11:31:32;99607.66;;;6.00;100.00
55675;BME280;41562;44.330;23.802;2023-04-04T11:41:47;99606.94;;;6.20;100.00
55675;BME280;41562;44.330;23.802;2023-04-04T11:44:16;99613.25;;;6.09;100.00
55675;BME280;41562;44.330;23.802;2023-04-04T11:46:44;99604.28;;;6.15;100.00
55675;BME280;41562;44.330;23.802;2023-04-04T11:49:13;99601.63;;;6.20;100.00
55675;BME280;41562;44.330;23.802;2023-04-04T11:51:41;99605.81;;;6.05;100.00
55675;BME280;41562;44.330;23.802;2023-04-04T11:54:13;99593.75;;;6.35;100.00
55675;BME280;41562;44.330;23.802;2023-04-04T11:56:41;99594.34;;;6.52;100.00
55675;BME280;41562;44.330;23.802;2023-04-04T11:59:17;99601.53;;;5.99;100.00
55675;BME280;41562;44.330;23.802;2023-04-04T12:01:44;99605.66;;;5.85;100.00
55675;BME280;41562;44.330;23.802;2023-04-04T12:04:16;99592.34;;;6.17;100.00
55675;BME280;41562;44.330;23.802;2023-04-04T12:06:44;99591.34;;;6.33;100.00
55675;BME280;41562;44.330;23.802;2023-04-04T12:09:13;99597.63;;;6.12;100.00
55675;BME280;41562;44.330;23.802;2023-04-04T12:11:40;99613.81;;;6.11;100.00
55675;BME280;41562;44.330;23.802;2023-04-04T12:14:14;99600.06;;;6.19;100.00
55675;BME280;41562;44.330;23.802;2023-04-04T12:16:46;99600.69;;;6.41;100.00
55675;BME280;41562;44.330;23.802;2023-04-04T12:19:15;99598.03;;;6.41;100.00
55675;BME280;41562;44.330;23.802;2023-04-04T12:21:43;99604.19;;;6.52;100.00
55675;BME280;41562;44.330;23.802;2023-04-04T12:24:11;99608.56;;;6.21;100.00
55675;BME280;41562;44.330;23.802;2023-04-04T12:26:43;99606.00;;;6.46;100.00
55675;BME280;41562;44.330;23.802;2023-04-04T12:29:15;99612.66;;;6.43;100.00
55675;BME280;41562;44.330;23.802;2023-04-04T12:31:44;99604.81;;;6.17;100.00
55675;BME280;41562;44.330;23.802;2023-04-04T12:34:23;99603.25;;;6.21;100.00
55675;BME280;41562;44.330;23.802;2023-04-04T12:36:51;99613.09;;;6.25;100.00
55675;BME280;41562;44.330;23.802;2023-04-04T12:39:21;99610.22;;;6.32;100.00
55675;BME280;41562;44.330;23.802;2023-04-04T12:41:53;99608.56;;;6.21;100.00
55675;BME280;41562;44.330;23.802;2023-04-04T12:46:58;99612.91;;;6.42;100.00
55675;BME280;41562;44.330;23.802;2023-04-04T12:49:48;99611.84;;;6.43;100.00
55675;BME280;41562;44.330;23.802;2023-04-04T12:52:20;99610.81;;;6.49;100.00
55675;BME280;41562;44.330;23.802;2023-04-04T12:54:49;99608.06;;;6.29;100.00
55675;BME280;41562;44.330;23.802;2023-04-04T12:57:33;99610.16;;;6.22;100.00
55675;BME280;41562;44.330;23.802;2023-04-04T13:00:02;99611.31;;;6.41;100.00
55675;BME280;41562;44.330;23.802;2023-04-04T13:02:30;99620.91;;;6.52;100.00
55675;BME280;41562;44.330;23.802;2023-04-04T13:05:07;99621.44;;;6.44;100.00
55675;BME280;41562;44.330;23.802;2023-04-04T13:07:37;99623.06;;;6.55;100.00
55675;BME280;41562;44.330;23.802;2023-04-04T13:10:16;99616.00;;;6.24;100.00
55675;BME280;41562;44.330;23.802;2023-04-04T13:12:58;99619.03;;;6.42;100.00
55675;BME280;41562;44.330;23.802;2023-04-04T13:15:48;99621.50;;;6.64;100.00
55675;BME280;41562;44.330;23.802;2023-04-04T13:18:20;99621.56;;;6.79;100.00